createdAt,value
2019-02-18T00:01:52.455Z,51.10
2019-02-18T00:04:22.103Z,53.97
2019-02-18T00:06:51.714Z,55.33
2019-02-18T00:09:21.293Z,51.70
2019-02-18T00:11:51.248Z,55.63
2019-02-18T00:14:20.820Z,57.17
2019-02-18T00:16:51.120Z,54.27
2019-02-18T00:19:20.758Z,54.73
2019-02-18T00:21:52.668Z,52.47
2019-02-18T00:24:22.370Z,54.87
2019-02-18T00:26:51.975Z,58.93
2019-02-18T00:29:21.924Z,61.00
2019-02-18T00:31:51.464Z,64.03
2019-02-18T00:34:21.094Z,58.23
2019-02-18T00:36:50.702Z,61.37
2019-02-18T00:39:20.247Z,65.00
2019-02-18T00:41:49.923Z,76.10
2019-02-18T00:44:19.484Z,82.43
2019-02-18T00:46:50.091Z,76.77
2019-02-18T00:49:19.668Z,84.23
2019-02-18T00:51:50.347Z,76.77
2019-02-18T00:54:19.919Z,79.97
2019-02-18T00:56:50.014Z,73.63
2019-02-18T00:59:21.892Z,73.43
2019-02-18T01:01:52.816Z,74.70
2019-02-18T01:04:22.455Z,74.40
2019-02-18T01:06:52.102Z,74.30
2019-02-18T01:09:21.755Z,71.87
2019-02-18T01:11:51.827Z,76.30
2019-02-18T01:14:21.495Z,76.93
2019-02-18T01:16:51.119Z,74.63
2019-02-18T01:19:20.782Z,74.57
2019-02-18T01:21:50.370Z,71.10
2019-02-18T01:24:19.946Z,73.97
2019-02-18T01:26:50.781Z,72.93
2019-02-18T01:29:26.221Z,71.80
2019-02-18T01:31:55.900Z,70.77
2019-02-18T01:34:25.572Z,74.60
2019-02-18T01:36:55.227Z,70.73
2019-02-18T01:39:26.229Z,66.47
2019-02-18T01:41:56.263Z,67.83
2019-02-18T01:44:26.046Z,70.80
2019-02-18T01:46:55.746Z,68.87
2019-02-18T01:49:25.364Z,69.10
2019-02-18T01:51:54.952Z,69.07
2019-02-18T01:54:24.591Z,72.30
2019-02-18T01:56:54.187Z,73.30
2019-02-18T01:59:23.778Z,73.87
2019-02-18T02:01:53.494Z,69.63
2019-02-18T02:04:23.123Z,70.40
2019-02-18T02:06:53.283Z,70.73
2019-02-18T02:09:22.955Z,69.93
2019-02-18T02:11:52.644Z,72.73
2019-02-18T02:14:23.057Z,72.57
2019-02-18T02:16:53.715Z,73.30
2019-02-18T02:19:26.314Z,74.57
2019-02-18T02:21:56.340Z,74.00
2019-02-18T02:24:26.329Z,75.63
2019-02-18T02:26:59.020Z,74.80
2019-02-18T02:29:28.715Z,73.60
2019-02-18T02:31:58.293Z,74.83
2019-02-18T02:34:27.844Z,73.63
2019-02-18T02:36:57.515Z,80.17
2019-02-18T02:39:27.169Z,76.13
2019-02-18T02:41:59.090Z,76.93
2019-02-18T02:44:28.783Z,77.33
2019-02-18T02:46:58.349Z,73.70
2019-02-18T02:49:30.457Z,76.37
2019-02-18T02:52:00.067Z,78.33
2019-02-18T02:54:29.662Z,81.87
2019-02-18T02:57:01.110Z,78.53
2019-02-18T02:59:30.672Z,79.73
2019-02-18T03:02:00.288Z,79.07
2019-02-18T03:04:29.875Z,79.63
2019-02-18T03:06:59.553Z,77.40
2019-02-18T03:09:30.762Z,77.40
2019-02-18T03:12:00.364Z,75.97
2019-02-18T03:14:29.995Z,82.73
2019-02-18T03:16:59.693Z,79.27
2019-02-18T03:19:29.334Z,80.33
2019-02-18T03:21:58.968Z,81.90
2019-02-18T03:24:28.578Z,80.20
2019-02-18T03:26:58.240Z,79.80
2019-02-18T03:29:55.929Z,76.80
2019-02-18T03:32:25.557Z,76.47
2019-02-18T03:34:55.106Z,79.10
2019-02-18T03:37:25.611Z,76.50
2019-02-18T03:39:55.550Z,78.50
2019-02-18T03:42:25.080Z,78.07
2019-02-18T03:44:54.750Z,76.00
2019-02-18T03:47:24.364Z,76.30
2019-02-18T03:49:54.097Z,78.93
2019-02-18T03:52:23.807Z,76.90
2019-02-18T03:54:53.456Z,75.43
2019-02-18T03:57:23.125Z,76.17
2019-02-18T03:59:52.866Z,77.30
2019-02-18T04:02:22.595Z,79.10
2019-02-18T04:04:52.278Z,78.30
2019-02-18T04:07:21.926Z,74.83
2019-02-18T04:09:51.593Z,79.07
2019-02-18T04:12:21.221Z,75.47
2019-02-18T04:14:53.276Z,75.77
2019-02-18T04:17:22.977Z,77.10
2019-02-18T04:19:52.593Z,77.17
2019-02-18T04:22:22.279Z,75.60
2019-02-18T04:24:55.310Z,74.67
2019-02-18T04:27:27.512Z,75.50
2019-02-18T04:29:57.213Z,73.53
2019-02-18T04:32:26.902Z,76.33
2019-02-18T04:34:56.605Z,73.63
2019-02-18T04:37:26.273Z,75.87
2019-02-18T04:39:55.858Z,73.77
2019-02-18T04:42:25.530Z,75.30
2019-02-18T04:44:56.324Z,77.73
2019-02-18T04:47:29.697Z,77.63
2019-02-18T04:49:59.444Z,76.57
2019-02-18T04:52:29.147Z,76.40
2019-02-18T04:54:58.821Z,76.50
2019-02-18T04:57:28.510Z,72.47
2019-02-18T04:59:58.088Z,77.40
2019-02-18T05:02:28.085Z,71.37
2019-02-18T05:04:57.721Z,75.87
2019-02-18T05:07:27.358Z,76.47
2019-02-18T05:09:58.133Z,75.53
2019-02-18T05:12:27.831Z,75.63
2019-02-18T05:14:57.472Z,74.03
2019-02-18T05:17:27.069Z,71.87
2019-02-18T05:19:56.728Z,72.43
2019-02-18T05:22:26.365Z,76.13
2019-02-18T05:24:55.943Z,71.67
2019-02-18T05:27:32.991Z,71.93
2019-02-18T05:29:56.917Z,72.63
2019-02-18T05:32:26.483Z,70.70
2019-02-18T05:34:56.158Z,70.10
2019-02-18T05:37:25.875Z,69.37
2019-02-18T05:39:56.594Z,81.67
2019-02-18T05:42:26.197Z,84.07
2019-02-18T05:44:55.833Z,78.30
2019-02-18T05:47:26.634Z,88.30
2019-02-18T05:49:56.316Z,75.37
2019-02-18T05:52:27.588Z,76.87
2019-02-18T05:54:57.320Z,86.80
2019-02-18T05:57:28.350Z,83.17
2019-02-18T05:59:58.061Z,77.83
2019-02-18T06:02:29.520Z,73.13
2019-02-18T06:05:11.393Z,76.73
2019-02-18T06:14:52.518Z,95.30
2019-02-18T06:17:39.112Z,78.13
2019-02-18T06:20:30.323Z,78.70
2019-02-18T06:23:04.029Z,73.50
2019-02-18T06:25:33.941Z,93.73
2019-02-18T06:28:06.586Z,79.07
2019-02-18T06:30:37.737Z,70.03
2019-02-18T06:33:07.368Z,72.07
2019-02-18T06:35:39.995Z,75.10
2019-02-18T06:38:09.670Z,77.00
2019-02-18T06:40:39.379Z,107.50
2019-02-18T06:43:09.051Z,91.83
2019-02-18T06:45:50.744Z,80.30
2019-02-18T06:48:24.211Z,81.10
2019-02-18T06:50:53.823Z,77.67
2019-02-18T06:53:23.402Z,78.57
2019-02-18T06:55:52.993Z,78.70
2019-02-18T06:58:41.475Z,80.17
2019-02-18T07:01:25.449Z,76.17
2019-02-18T07:04:29.444Z,80.17
2019-02-18T07:07:20.322Z,82.30
2019-02-18T07:10:01.020Z,74.13
2019-02-18T07:12:36.356Z,75.30
2019-02-18T07:15:06.889Z,77.03
2019-02-18T07:17:36.667Z,78.67
2019-02-18T07:20:06.821Z,82.20
2019-02-18T07:22:36.512Z,83.40
2019-02-18T07:25:07.718Z,84.07
2019-02-18T07:27:37.267Z,77.27
2019-02-18T07:30:09.412Z,82.10
2019-02-18T07:32:39.109Z,84.87
2019-02-18T07:35:08.778Z,81.20
2019-02-18T07:37:38.367Z,83.20
2019-02-18T07:40:09.214Z,85.87
2019-02-18T07:42:38.849Z,84.27
2019-02-18T07:45:09.810Z,85.13
2019-02-18T07:47:39.461Z,89.17
2019-02-18T07:50:19.932Z,98.83
2019-02-18T07:52:41.057Z,101.80
2019-02-18T07:55:10.861Z,100.57
2019-02-18T07:57:40.467Z,102.97
2019-02-18T08:00:12.072Z,97.77
2019-02-18T08:02:41.706Z,97.50
2019-02-18T08:05:11.436Z,98.03
2019-02-18T08:07:41.063Z,92.83
2019-02-18T08:10:14.520Z,93.00
2019-02-18T08:12:43.844Z,88.70
2019-02-18T08:15:14.697Z,92.80
2019-02-18T08:17:44.387Z,95.83
2019-02-18T08:20:14.160Z,98.50
2019-02-18T08:22:43.771Z,92.80
2019-02-18T08:25:13.701Z,92.10
2019-02-18T08:27:43.270Z,89.47
2019-02-18T08:30:13.422Z,93.53
2019-02-18T08:32:43.136Z,89.20
2019-02-18T08:35:12.763Z,87.60
2019-02-18T08:37:42.387Z,91.33
2019-02-18T08:40:21.776Z,88.47
2019-02-18T08:42:43.144Z,87.03
2019-02-18T08:45:13.011Z,89.53
2019-02-18T08:47:42.642Z,92.73
2019-02-18T08:50:12.576Z,86.33
2019-02-18T08:52:42.250Z,83.07
2019-02-18T08:55:12.785Z,79.03
2019-02-18T08:57:45.436Z,79.30
2019-02-18T09:00:16.597Z,75.30
2019-02-18T09:02:46.295Z,76.57
2019-02-18T09:05:15.962Z,73.83
2019-02-18T09:07:45.537Z,75.47
2019-02-18T09:10:15.137Z,72.00
2019-02-18T09:12:44.731Z,73.90
2019-02-18T09:15:14.565Z,71.93
2019-02-18T09:17:44.131Z,69.73
2019-02-18T09:20:13.902Z,64.73
2019-02-18T09:23:05.370Z,65.27
2019-02-18T09:25:43.438Z,64.57
2019-02-18T09:28:12.956Z,59.70
2019-02-18T09:30:44.244Z,60.63
2019-02-18T09:33:13.965Z,58.27
2019-02-18T09:35:43.587Z,57.43
2019-02-18T09:38:23.815Z,55.20
2019-02-18T09:40:48.523Z,54.00
2019-02-18T09:43:15.600Z,57.87
2019-02-18T09:45:45.160Z,59.20
2019-02-18T09:48:14.796Z,57.33
2019-02-18T09:50:44.375Z,58.07
2019-02-18T09:53:13.939Z,59.67
2019-02-18T09:55:43.576Z,60.17
2019-02-18T09:58:13.153Z,65.27
2019-02-18T10:00:42.758Z,65.13
2019-02-18T10:03:12.406Z,66.20
2019-02-18T10:05:41.971Z,63.23
2019-02-18T10:08:11.600Z,63.90
2019-02-18T10:10:41.294Z,62.43
2019-02-18T10:13:10.840Z,59.30
2019-02-18T10:15:40.411Z,58.07
2019-02-18T10:18:09.941Z,58.97
2019-02-18T10:20:39.573Z,54.57
2019-02-18T10:23:09.250Z,55.07
2019-02-18T10:25:38.839Z,60.20
2019-02-18T10:28:08.381Z,53.77
2019-02-18T10:30:37.975Z,53.80
2019-02-18T10:33:07.584Z,51.43
2019-02-18T10:35:37.128Z,52.83
2019-02-18T10:38:06.704Z,48.00
2019-02-18T10:40:36.384Z,47.83
2019-02-18T10:43:06.034Z,45.70
2019-02-18T10:45:35.506Z,35.03
2019-02-18T10:48:05.084Z,37.43
2019-02-18T10:50:35.442Z,30.03
2019-02-18T10:53:04.992Z,33.73
2019-02-18T10:55:36.363Z,33.43
2019-02-18T10:58:05.909Z,36.33
2019-02-18T11:00:35.436Z,36.23
2019-02-18T11:03:04.993Z,36.87
2019-02-18T11:05:34.522Z,38.60
2019-02-18T11:08:04.100Z,43.53
2019-02-18T11:10:33.665Z,41.17
2019-02-18T11:13:03.264Z,40.53
2019-02-18T11:15:32.815Z,40.07
2019-02-18T11:18:02.440Z,41.27
2019-02-18T11:20:32.041Z,40.47
2019-02-18T11:23:01.970Z,40.57
2019-02-18T11:25:31.588Z,41.00
2019-02-18T11:28:01.505Z,36.30
2019-02-18T11:30:32.088Z,37.00
2019-02-18T11:33:01.666Z,37.37
2019-02-18T11:35:31.232Z,34.70
2019-02-18T11:38:00.759Z,31.63
2019-02-18T11:40:32.162Z,34.63
2019-02-18T11:43:01.635Z,30.90
2019-02-18T11:45:31.219Z,31.63
2019-02-18T11:48:00.771Z,33.10
2019-02-18T11:50:30.362Z,34.07
2019-02-18T11:52:59.906Z,34.30
2019-02-18T11:55:29.865Z,32.37
2019-02-18T11:57:59.487Z,34.10
2019-02-18T12:00:29.106Z,36.33
2019-02-18T12:03:03.126Z,35.23
2019-02-18T12:05:30.392Z,32.60
2019-02-18T12:07:59.935Z,35.73
2019-02-18T12:10:29.709Z,36.73
2019-02-18T12:12:59.288Z,36.00
2019-02-18T12:15:28.847Z,33.23
2019-02-18T12:17:58.479Z,25.20
2019-02-18T12:20:28.076Z,30.13
2019-02-18T12:22:57.682Z,29.80
2019-02-18T12:25:27.399Z,31.67
2019-02-18T12:27:57.033Z,30.17
2019-02-18T12:30:26.581Z,29.27
2019-02-18T12:32:56.251Z,28.93
2019-02-18T12:35:31.009Z,26.27
2019-02-18T12:37:57.067Z,27.30
2019-02-18T12:40:26.647Z,25.20
2019-02-18T12:42:56.223Z,24.33
2019-02-18T12:45:25.801Z,24.43
2019-02-18T12:47:55.439Z,22.77
2019-02-18T12:50:25.035Z,25.20
2019-02-18T12:52:55.156Z,25.13
2019-02-18T12:55:25.155Z,23.87
2019-02-18T12:57:54.935Z,20.93
2019-02-18T13:00:24.972Z,21.43
2019-02-18T13:02:54.604Z,23.03
2019-02-18T13:05:24.170Z,20.20
2019-02-18T13:07:53.735Z,20.07
2019-02-18T13:10:23.701Z,19.80
2019-02-18T13:12:53.251Z,19.00
2019-02-18T13:15:22.841Z,18.23
2019-02-18T13:17:52.456Z,17.87
2019-02-18T13:20:22.047Z,18.97
2019-02-18T13:22:51.693Z,17.07
2019-02-18T13:25:21.357Z,15.97
2019-02-18T13:27:51.362Z,16.07
2019-02-18T13:30:21.032Z,16.60
2019-02-18T13:32:50.692Z,15.43
2019-02-18T13:35:20.337Z,14.70
2019-02-18T13:37:49.951Z,15.37
2019-02-18T13:40:19.520Z,15.87
2019-02-18T13:42:49.203Z,16.90
2019-02-18T13:45:18.756Z,14.87
2019-02-18T13:47:48.385Z,16.13
2019-02-18T13:50:18.067Z,15.87
2019-02-18T13:52:47.701Z,15.07
2019-02-18T13:55:17.381Z,16.30
2019-02-18T13:57:46.984Z,21.27
2019-02-18T14:00:19.231Z,25.03
2019-02-18T14:02:50.474Z,27.00
2019-02-18T14:05:20.504Z,26.83
2019-02-18T14:07:51.058Z,29.77
2019-02-18T14:10:21.551Z,29.33
2019-02-18T14:12:51.104Z,21.97
2019-02-18T14:15:20.743Z,19.57
2019-02-18T14:17:50.678Z,19.27
2019-02-18T14:20:20.320Z,20.93
2019-02-18T14:22:49.941Z,20.07
2019-02-18T14:25:19.652Z,19.20
2019-02-18T14:27:49.222Z,16.70
2019-02-18T14:30:19.048Z,14.77
2019-02-18T14:32:48.672Z,12.83
2019-02-18T14:35:18.590Z,13.67
2019-02-18T14:37:48.464Z,13.50
2019-02-18T14:40:18.374Z,14.00
2019-02-18T14:42:47.996Z,13.60
2019-02-18T14:45:17.695Z,14.63
2019-02-18T14:47:47.396Z,15.93
2019-02-18T14:50:18.463Z,16.10
2019-02-18T14:52:48.578Z,16.47
2019-02-18T14:55:18.207Z,18.30
2019-02-18T14:57:47.947Z,18.93
2019-02-18T15:00:21.391Z,18.63
2019-02-18T15:02:52.615Z,19.77
2019-02-18T15:05:22.322Z,19.90
2019-02-18T15:07:51.875Z,18.53
2019-02-18T15:10:21.619Z,19.87
2019-02-18T15:12:51.169Z,21.07
2019-02-18T15:15:21.033Z,22.87
2019-02-18T15:17:50.611Z,20.90
2019-02-18T15:20:20.501Z,21.33
2019-02-18T15:22:50.180Z,23.60
2019-02-18T15:25:21.957Z,25.70
2019-02-18T15:28:14.765Z,26.13
2019-02-18T15:30:48.560Z,26.60
2019-02-18T15:33:23.193Z,26.60
2019-02-18T15:35:59.076Z,25.63
2019-02-18T15:38:29.055Z,23.93
2019-02-18T15:41:02.915Z,24.67
2019-02-18T15:43:35.457Z,26.03
2019-02-18T15:46:05.231Z,27.10
2019-02-18T15:48:36.396Z,28.43
2019-02-18T15:51:06.302Z,29.67
2019-02-18T15:53:36.367Z,27.67
2019-02-18T15:56:07.567Z,26.00
2019-02-18T15:58:38.840Z,25.80
2019-02-18T16:01:08.507Z,24.27
2019-02-18T16:03:38.131Z,25.50
2019-02-18T16:06:07.800Z,25.97
2019-02-18T16:08:37.514Z,27.13
2019-02-18T16:11:07.098Z,26.37
2019-02-18T16:13:36.764Z,28.50
2019-02-18T16:16:06.427Z,28.30
2019-02-18T16:18:36.042Z,35.40
2019-02-18T16:21:05.672Z,41.57
2019-02-18T16:23:35.294Z,51.67
2019-02-18T16:26:04.837Z,61.63
2019-02-18T16:28:34.508Z,62.03
2019-02-18T16:31:04.102Z,63.10
2019-02-18T16:33:33.696Z,56.27
2019-02-18T16:36:03.320Z,61.20
2019-02-18T16:38:32.972Z,52.00
2019-02-18T16:41:02.603Z,42.17
2019-02-18T16:43:32.747Z,33.90
2019-02-18T16:46:02.360Z,33.40
2019-02-18T16:48:32.260Z,33.53
2019-02-18T16:51:02.071Z,33.17
2019-02-18T16:53:31.742Z,35.37
2019-02-18T16:56:01.350Z,36.60
2019-02-18T16:58:31.039Z,38.10
2019-02-18T17:01:00.770Z,37.47
2019-02-18T17:03:30.356Z,36.87
2019-02-18T17:05:59.984Z,35.83
2019-02-18T17:08:29.578Z,34.30
2019-02-18T17:10:59.199Z,36.30
2019-02-18T17:13:28.980Z,33.83
2019-02-18T17:15:58.566Z,36.33
2019-02-18T17:18:28.169Z,36.80
2019-02-18T17:20:57.839Z,39.43
2019-02-18T17:23:27.504Z,36.47
2019-02-18T17:26:39.291Z,35.07
2019-02-18T17:29:10.923Z,33.20
2019-02-18T17:31:40.593Z,34.23
2019-02-18T17:34:10.280Z,35.80
2019-02-18T17:36:40.845Z,39.97
2019-02-18T17:39:10.603Z,36.60
2019-02-18T17:41:40.365Z,40.27
2019-02-18T17:44:10.109Z,42.57
2019-02-18T17:46:41.447Z,41.40
2019-02-18T17:49:11.088Z,39.77
2019-02-18T17:51:41.389Z,39.90
2019-02-18T17:54:11.245Z,39.90
2019-02-18T17:56:43.867Z,40.10
2019-02-18T17:59:13.585Z,41.13
2019-02-18T18:01:43.551Z,42.80
2019-02-18T18:04:13.247Z,43.00
2019-02-18T18:06:42.874Z,44.33
2019-02-18T18:09:12.804Z,45.30
2019-02-18T18:11:42.512Z,46.97
2019-02-18T18:14:12.197Z,45.97
2019-02-18T18:16:41.751Z,45.97
2019-02-18T18:19:11.389Z,47.17
2019-02-18T18:21:41.928Z,32.53
2019-02-18T18:24:11.630Z,41.33
2019-02-18T18:26:41.284Z,45.07
2019-02-18T18:29:10.923Z,44.87
2019-02-18T18:31:40.520Z,46.47
2019-02-18T18:34:22.167Z,44.70
2019-02-18T18:36:51.737Z,45.00
2019-02-18T18:39:21.562Z,47.57
2019-02-18T18:41:51.219Z,47.27
2019-02-18T18:44:20.840Z,50.63
2019-02-18T18:46:50.490Z,59.20
2019-02-18T18:49:20.471Z,55.87
2019-02-18T18:51:50.156Z,57.70
2019-02-18T18:54:19.861Z,52.77
2019-02-18T18:56:49.540Z,57.77
2019-02-18T18:59:19.244Z,53.03
2019-02-18T19:01:51.703Z,50.57
2019-02-18T19:04:22.579Z,55.83
2019-02-18T19:06:55.726Z,54.57
2019-02-18T19:09:25.301Z,47.50
2019-02-18T19:11:54.949Z,47.50
2019-02-18T19:14:24.540Z,53.40
2019-02-18T19:16:55.277Z,54.47
2019-02-18T19:19:25.735Z,51.67
2019-02-18T19:21:55.543Z,52.17
2019-02-18T19:24:28.309Z,51.97
2019-02-18T19:26:57.909Z,56.43
2019-02-18T19:29:28.685Z,55.97
2019-02-18T19:31:58.403Z,55.27
2019-02-18T19:34:28.031Z,53.30
2019-02-18T19:36:58.087Z,53.27
2019-02-18T19:39:27.769Z,54.43
2019-02-18T19:41:57.679Z,53.87
2019-02-18T19:44:27.863Z,50.90
2019-02-18T19:46:57.516Z,50.97
2019-02-18T19:49:27.180Z,49.30
2019-02-18T19:51:56.847Z,50.27
2019-02-18T19:54:26.559Z,51.40
2019-02-18T19:56:57.969Z,51.57
2019-02-18T19:59:27.677Z,52.07
2019-02-18T20:01:57.355Z,52.73
2019-02-18T20:04:27.054Z,50.67
2019-02-18T20:06:56.661Z,63.23
2019-02-18T20:09:26.836Z,67.53
2019-02-18T20:11:56.460Z,56.93
2019-02-18T20:14:26.071Z,53.30
2019-02-18T20:16:55.829Z,52.73
2019-02-18T20:19:25.488Z,54.33
2019-02-18T20:21:55.139Z,53.13
2019-02-18T20:24:25.070Z,52.20
2019-02-18T20:26:54.734Z,56.23
2019-02-18T20:29:24.769Z,64.87
2019-02-18T20:31:54.492Z,67.50
2019-02-18T20:34:24.338Z,60.70
2019-02-18T20:36:54.490Z,58.50
2019-02-18T20:39:24.210Z,63.33
2019-02-18T20:41:53.888Z,62.07
2019-02-18T20:44:23.566Z,68.17
2019-02-18T20:46:53.152Z,71.03
2019-02-18T20:49:22.935Z,73.33
2019-02-18T20:51:52.937Z,73.10
2019-02-18T20:54:22.736Z,73.57
2019-02-18T20:56:52.456Z,68.40
2019-02-18T20:59:35.763Z,59.80
2019-02-18T21:01:56.578Z,57.97
2019-02-18T21:04:26.495Z,68.23
2019-02-18T21:06:56.172Z,70.37
2019-02-18T21:09:25.945Z,68.30
2019-02-18T21:11:57.066Z,66.70
2019-02-18T21:14:27.681Z,69.10
2019-02-18T21:16:57.440Z,70.57
2019-02-18T21:19:27.178Z,63.50
2019-02-18T21:21:58.284Z,57.90
2019-02-18T21:24:28.026Z,54.07
2019-02-18T21:26:57.774Z,54.40
2019-02-18T21:29:27.409Z,54.40
2019-02-18T21:31:57.546Z,56.53
2019-02-18T21:34:27.240Z,55.57
2019-02-18T21:36:56.841Z,54.30
2019-02-18T21:39:26.526Z,53.13
2019-02-18T21:41:56.139Z,53.23
2019-02-18T21:44:26.043Z,50.93
2019-02-18T21:46:57.249Z,51.63
2019-02-18T21:49:26.922Z,53.03
2019-02-18T21:51:58.260Z,56.17
2019-02-18T21:54:27.952Z,54.60
2019-02-18T21:56:57.591Z,55.00
2019-02-18T21:59:27.237Z,54.07
2019-02-18T22:01:56.906Z,50.63
2019-02-18T22:04:26.530Z,50.37
2019-02-18T22:06:56.215Z,53.97
2019-02-18T22:09:28.199Z,52.80
2019-02-18T22:11:57.963Z,60.87
2019-02-18T22:14:33.240Z,54.30
2019-02-18T22:17:01.451Z,53.57
2019-02-18T22:19:32.550Z,48.73
2019-02-18T22:22:02.330Z,47.23
2019-02-18T22:24:38.012Z,47.27
2019-02-18T22:27:11.896Z,49.00
2019-02-18T22:29:41.574Z,48.07
2019-02-18T22:32:11.474Z,49.57
2019-02-18T22:34:45.434Z,49.93
2019-02-18T22:37:12.599Z,48.90
2019-02-18T22:39:42.379Z,49.00
2019-02-18T22:42:13.072Z,47.67
2019-02-18T22:44:43.205Z,50.73
2019-02-18T22:47:12.883Z,48.47
2019-02-18T22:49:42.545Z,49.60
2019-02-18T22:52:14.523Z,47.93
2019-02-18T22:54:44.340Z,48.13
2019-02-18T22:57:14.506Z,48.17
2019-02-18T22:59:44.161Z,47.03
2019-02-18T23:02:15.447Z,49.20
2019-02-18T23:04:45.324Z,48.93
2019-02-18T23:07:15.191Z,46.03
2019-02-18T23:09:47.790Z,46.77
2019-02-18T23:12:18.281Z,46.30
2019-02-18T23:14:50.453Z,45.80
2019-02-18T23:17:26.704Z,45.33
2019-02-18T23:19:57.652Z,43.30
2019-02-18T23:22:34.777Z,43.67
2019-02-18T23:25:05.806Z,41.17
2019-02-18T23:27:36.219Z,40.87
2019-02-18T23:30:06.786Z,40.27
2019-02-18T23:32:36.461Z,40.47
2019-02-18T23:35:06.554Z,40.17
2019-02-18T23:37:36.341Z,39.20
2019-02-18T23:40:06.253Z,38.13
2019-02-18T23:42:39.060Z,38.23
2019-02-18T23:45:08.743Z,39.30
2019-02-18T23:47:38.340Z,41.47
2019-02-18T23:50:07.951Z,44.10
2019-02-18T23:52:37.566Z,41.43
2019-02-18T23:55:07.174Z,41.80
2019-02-18T23:57:36.777Z,41.80
